createdAt,value
2019-02-24T00:01:00.064Z,47.70
2019-02-24T00:03:27.593Z,47.60
2019-02-24T00:05:55.119Z,47.60
2019-02-24T00:08:22.663Z,47.60
2019-02-24T00:10:50.198Z,47.60
2019-02-24T00:13:17.721Z,47.60
2019-02-24T00:15:45.256Z,47.50
2019-02-24T00:18:12.789Z,47.50
2019-02-24T00:20:40.327Z,47.40
2019-02-24T00:23:07.852Z,47.30
2019-02-24T00:25:35.381Z,47.30
2019-02-24T00:28:07.229Z,47.70
2019-02-24T00:30:32.170Z,47.40
2019-02-24T00:32:59.754Z,47.40
2019-02-24T00:35:27.298Z,47.30
2019-02-24T00:37:54.826Z,47.30
2019-02-24T00:40:22.354Z,47.30
2019-02-24T00:42:49.884Z,47.30
2019-02-24T00:45:17.409Z,47.10
2019-02-24T00:47:44.930Z,47.20
2019-02-24T00:50:12.478Z,47.10
2019-02-24T00:52:40.006Z,47.10
2019-02-24T00:55:07.532Z,47.10
2019-02-24T00:57:35.073Z,47.00
2019-02-24T01:00:02.855Z,47.00
2019-02-24T01:02:30.388Z,47.00
2019-02-24T01:04:57.922Z,47.00
2019-02-24T01:07:25.445Z,47.00
2019-02-24T01:09:52.973Z,47.10
2019-02-24T01:12:20.519Z,47.00
2019-02-24T01:14:48.036Z,47.00
2019-02-24T01:17:15.597Z,47.00
2019-02-24T01:19:43.110Z,46.90
2019-02-24T01:22:10.641Z,46.90
2019-02-24T01:24:38.165Z,46.90
2019-02-24T01:27:05.694Z,46.90
2019-02-24T01:29:33.210Z,46.70
2019-02-24T01:32:02.681Z,47.30
2019-02-24T01:34:29.987Z,46.70
2019-02-24T01:36:57.529Z,46.60
2019-02-24T01:39:25.042Z,46.70
2019-02-24T01:41:52.563Z,46.80
2019-02-24T01:44:20.097Z,46.80
2019-02-24T01:46:47.622Z,46.80
2019-02-24T01:49:15.156Z,46.80
2019-02-24T01:51:42.686Z,46.80
2019-02-24T01:54:10.207Z,46.80
2019-02-24T01:56:37.738Z,46.80
2019-02-24T01:59:05.269Z,46.60
2019-02-24T02:01:32.799Z,46.70
2019-02-24T02:04:00.333Z,46.60
2019-02-24T02:06:27.862Z,46.60
2019-02-24T02:08:55.403Z,46.40
2019-02-24T02:11:22.930Z,46.40
2019-02-24T02:13:50.759Z,46.50
2019-02-24T02:16:18.292Z,46.40
2019-02-24T02:18:45.825Z,46.50
2019-02-24T02:21:13.349Z,46.50
2019-02-24T02:23:40.882Z,46.50
2019-02-24T02:26:08.398Z,46.40
2019-02-24T02:28:43.757Z,46.40
2019-02-24T02:31:05.184Z,46.40
2019-02-24T02:33:32.727Z,46.40
2019-02-24T02:36:00.247Z,46.40
2019-02-24T02:38:27.789Z,46.30
2019-02-24T02:40:55.314Z,46.20
2019-02-24T02:43:22.861Z,46.20
2019-02-24T02:45:50.381Z,46.30
2019-02-24T02:48:17.926Z,46.20
2019-02-24T02:50:45.459Z,46.20
2019-02-24T02:53:12.973Z,46.20
2019-02-24T02:55:40.500Z,46.30
2019-02-24T02:58:08.385Z,46.30
2019-02-24T03:00:36.179Z,46.30
2019-02-24T03:03:03.696Z,46.20
2019-02-24T03:05:31.330Z,46.20
2019-02-24T03:08:03.440Z,46.20
2019-02-24T03:10:31.052Z,46.20
2019-02-24T03:12:58.573Z,46.10
2019-02-24T03:15:26.091Z,46.00
2019-02-24T03:17:53.617Z,46.00
2019-02-24T03:20:21.161Z,46.00
2019-02-24T03:22:48.679Z,46.00
2019-02-24T03:25:16.227Z,46.00
2019-02-24T03:27:43.747Z,46.00
2019-02-24T03:30:11.350Z,46.00
2019-02-24T03:32:39.058Z,46.00
2019-02-24T03:35:06.650Z,45.90
2019-02-24T03:37:34.175Z,45.70
2019-02-24T03:40:01.710Z,45.10
2019-02-24T03:42:29.366Z,45.60
2019-02-24T03:44:56.896Z,45.60
2019-02-24T03:47:24.427Z,45.60
2019-02-24T03:49:51.947Z,45.60
2019-02-24T03:52:19.704Z,45.60
2019-02-24T03:54:47.231Z,45.70
2019-02-24T03:57:14.761Z,45.60
2019-02-24T03:59:42.293Z,45.60
2019-02-24T04:02:09.850Z,45.60
2019-02-24T04:04:37.657Z,45.60
2019-02-24T04:07:05.251Z,45.70
2019-02-24T04:09:32.826Z,45.70
2019-02-24T04:12:00.352Z,45.70
2019-02-24T04:14:27.853Z,45.60
2019-02-24T04:16:55.376Z,45.70
2019-02-24T04:19:22.914Z,45.60
2019-02-24T04:21:50.437Z,45.60
2019-02-24T04:24:18.029Z,45.60
2019-02-24T04:26:45.641Z,45.60
2019-02-24T04:29:13.149Z,45.60
2019-02-24T04:31:40.755Z,45.60
2019-02-24T04:34:08.292Z,45.60
2019-02-24T04:36:35.883Z,45.70
2019-02-24T04:39:03.845Z,45.60
2019-02-24T04:41:31.361Z,45.60
2019-02-24T04:43:58.978Z,45.70
2019-02-24T04:46:26.525Z,45.60
2019-02-24T04:48:54.059Z,45.60
2019-02-24T04:51:21.664Z,45.60
2019-02-24T04:53:49.281Z,45.50
2019-02-24T04:56:16.922Z,45.60
2019-02-24T04:58:44.451Z,45.50
2019-02-24T05:01:11.985Z,45.50
2019-02-24T05:03:39.578Z,45.50
2019-02-24T05:06:07.100Z,45.60
2019-02-24T05:08:34.634Z,45.50
2019-02-24T05:11:02.151Z,45.60
2019-02-24T05:13:29.683Z,45.50
2019-02-24T05:15:57.237Z,45.60
2019-02-24T05:18:24.798Z,45.60
2019-02-24T05:20:52.327Z,45.50
2019-02-24T05:23:19.878Z,46.00
2019-02-24T05:25:47.489Z,45.30
2019-02-24T05:28:15.037Z,45.30
2019-02-24T05:30:42.663Z,45.40
2019-02-24T05:33:10.201Z,45.30
2019-02-24T05:35:37.730Z,45.30
2019-02-24T05:38:05.256Z,45.30
2019-02-24T05:40:32.784Z,45.50
2019-02-24T05:43:00.342Z,45.30
2019-02-24T05:45:27.919Z,45.30
2019-02-24T05:47:55.449Z,45.30
2019-02-24T05:50:22.978Z,45.20
2019-02-24T05:52:50.517Z,45.20
2019-02-24T05:55:18.141Z,45.20
2019-02-24T05:57:45.660Z,45.10
2019-02-24T06:00:13.195Z,45.00
2019-02-24T06:02:40.712Z,45.10
2019-02-24T06:05:08.250Z,45.00
2019-02-24T06:07:35.829Z,45.00
2019-02-24T06:10:03.835Z,45.10
2019-02-24T06:12:31.400Z,45.10
2019-02-24T06:14:59.066Z,45.10
2019-02-24T06:17:26.901Z,45.30
2019-02-24T06:19:54.423Z,45.20
2019-02-24T06:22:21.952Z,45.20
2019-02-24T06:24:49.498Z,45.20
2019-02-24T06:27:17.018Z,45.20
2019-02-24T06:29:44.777Z,45.20
2019-02-24T06:32:12.311Z,45.10
2019-02-24T06:34:39.845Z,45.10
2019-02-24T06:37:07.374Z,45.00
2019-02-24T06:39:34.902Z,44.90
2019-02-24T06:42:02.428Z,45.00
2019-02-24T06:44:30.059Z,45.00
2019-02-24T06:46:58.339Z,45.00
2019-02-24T06:49:26.004Z,44.90
2019-02-24T06:51:53.542Z,44.90
2019-02-24T06:54:21.075Z,44.90
2019-02-24T06:56:48.605Z,44.80
2019-02-24T06:59:16.137Z,44.90
2019-02-24T07:01:43.723Z,45.00
2019-02-24T07:04:11.315Z,44.90
2019-02-24T07:06:38.834Z,45.10
2019-02-24T07:09:07.290Z,45.10
2019-02-24T07:11:35.211Z,44.90
2019-02-24T07:14:02.773Z,44.80
2019-02-24T07:16:30.346Z,44.90
2019-02-24T07:18:58.274Z,44.80
2019-02-24T07:21:25.807Z,45.00
2019-02-24T07:23:53.788Z,45.10
2019-02-24T07:26:21.309Z,45.10
2019-02-24T07:28:48.839Z,45.40
2019-02-24T07:31:16.376Z,45.60
2019-02-24T07:33:43.906Z,45.50
2019-02-24T07:36:11.540Z,45.50
2019-02-24T07:38:39.076Z,45.50
2019-02-24T07:41:06.590Z,45.50
2019-02-24T07:43:34.160Z,45.50
2019-02-24T07:46:01.693Z,45.40
2019-02-24T07:48:29.216Z,45.50
2019-02-24T07:50:56.836Z,45.60
2019-02-24T07:53:24.429Z,45.50
2019-02-24T07:55:51.962Z,45.50
2019-02-24T07:58:19.489Z,45.50
2019-02-24T08:00:47.065Z,45.40
2019-02-24T08:03:14.721Z,45.50
2019-02-24T08:05:42.318Z,45.50
2019-02-24T08:08:16.271Z,45.30
2019-02-24T08:10:39.188Z,45.30
2019-02-24T08:13:06.720Z,45.20
2019-02-24T08:15:34.429Z,45.30
2019-02-24T08:18:01.969Z,45.20
2019-02-24T08:20:30.561Z,45.30
2019-02-24T08:22:59.036Z,45.40
2019-02-24T08:25:26.814Z,45.30
2019-02-24T08:27:55.604Z,45.40
2019-02-24T08:30:23.246Z,45.30
2019-02-24T08:32:50.781Z,45.30
2019-02-24T08:35:18.284Z,45.40
2019-02-24T08:37:46.811Z,45.60
2019-02-24T08:40:14.351Z,45.60
2019-02-24T08:42:41.965Z,45.70
2019-02-24T08:45:09.633Z,45.60
2019-02-24T08:47:37.165Z,45.60
2019-02-24T08:50:06.405Z,45.60
2019-02-24T08:52:33.945Z,45.60
2019-02-24T08:55:01.815Z,45.60
2019-02-24T08:57:29.410Z,45.60
2019-02-24T08:59:56.941Z,45.60
2019-02-24T09:02:24.462Z,45.60
2019-02-24T09:04:51.992Z,45.90
2019-02-24T09:07:19.540Z,45.70
2019-02-24T09:09:47.114Z,45.60
2019-02-24T09:12:15.016Z,45.70
2019-02-24T09:14:42.677Z,45.60
2019-02-24T09:17:10.259Z,45.60
2019-02-24T09:19:37.868Z,45.60
2019-02-24T09:22:05.395Z,45.70
2019-02-24T09:24:32.919Z,45.70
2019-02-24T09:27:00.434Z,45.60
2019-02-24T09:29:27.970Z,45.60
2019-02-24T09:31:55.536Z,45.60
2019-02-24T09:34:23.070Z,45.40
2019-02-24T09:36:50.595Z,45.50
2019-02-24T09:39:18.123Z,45.80
2019-02-24T09:41:45.665Z,45.60
2019-02-24T09:44:13.246Z,45.60
2019-02-24T09:46:40.776Z,45.70
2019-02-24T09:49:08.317Z,45.50
2019-02-24T09:51:36.087Z,45.40
2019-02-24T09:54:03.637Z,45.50
2019-02-24T09:56:31.429Z,45.50
2019-02-24T09:58:58.943Z,45.30
2019-02-24T10:01:26.478Z,45.20
2019-02-24T10:03:54.014Z,45.40
2019-02-24T10:06:21.611Z,45.20
2019-02-24T10:08:49.153Z,45.20
2019-02-24T10:11:16.682Z,45.20
2019-02-24T10:13:44.212Z,45.10
2019-02-24T10:16:11.737Z,45.10
2019-02-24T10:18:39.563Z,45.10
2019-02-24T10:21:07.100Z,45.00
2019-02-24T10:23:34.618Z,44.90
2019-02-24T10:26:02.147Z,45.00
2019-02-24T10:28:29.682Z,45.00
2019-02-24T10:30:57.203Z,44.90
2019-02-24T10:33:24.731Z,45.00
2019-02-24T10:35:52.257Z,45.00
2019-02-24T10:38:19.803Z,45.00
2019-02-24T10:40:47.396Z,45.10
2019-02-24T10:43:15.001Z,45.00
2019-02-24T10:45:42.559Z,45.10
2019-02-24T10:48:13.997Z,45.00
2019-02-24T10:50:39.410Z,45.00
2019-02-24T10:53:07.000Z,44.80
2019-02-24T10:55:34.533Z,45.00
2019-02-24T10:58:02.105Z,44.90
2019-02-24T11:00:29.787Z,44.90
2019-02-24T11:02:57.313Z,44.90
2019-02-24T11:05:25.932Z,44.80
2019-02-24T11:07:53.458Z,44.70
2019-02-24T11:10:21.310Z,44.70
2019-02-24T11:12:48.902Z,44.70
2019-02-24T11:15:16.733Z,44.70
2019-02-24T11:17:44.246Z,44.80
2019-02-24T11:20:12.955Z,44.80
2019-02-24T11:22:40.476Z,44.80
2019-02-24T11:25:08.945Z,44.80
2019-02-24T11:27:36.500Z,44.90
2019-02-24T11:30:04.799Z,44.80
2019-02-24T11:32:32.321Z,44.70
2019-02-24T11:34:59.852Z,44.80
2019-02-24T11:37:27.397Z,44.90
2019-02-24T11:39:54.915Z,44.80
2019-02-24T11:42:22.463Z,44.90
2019-02-24T11:44:49.989Z,44.80
2019-02-24T11:47:17.877Z,44.80
2019-02-24T11:49:45.416Z,44.80
2019-02-24T11:52:12.998Z,44.80
2019-02-24T11:54:41.748Z,44.90
2019-02-24T11:57:09.290Z,44.80
2019-02-24T11:59:36.814Z,44.50
2019-02-24T12:02:04.350Z,44.90
2019-02-24T12:04:31.897Z,44.90
2019-02-24T12:06:59.551Z,44.90
2019-02-24T12:09:27.074Z,44.80
2019-02-24T12:11:54.680Z,44.90
2019-02-24T12:14:22.203Z,44.90
2019-02-24T12:16:49.741Z,44.90
2019-02-24T12:19:17.287Z,44.70
2019-02-24T12:21:44.823Z,44.70
2019-02-24T12:24:12.626Z,44.80
2019-02-24T12:26:40.146Z,44.80
2019-02-24T12:29:07.684Z,44.90
2019-02-24T12:31:38.048Z,44.90
2019-02-24T12:34:05.580Z,44.90
2019-02-24T12:36:33.168Z,44.90
2019-02-24T12:39:00.698Z,44.90
2019-02-24T12:41:28.224Z,44.80
2019-02-24T12:43:55.824Z,45.00
2019-02-24T12:46:23.352Z,44.80
2019-02-24T12:48:50.888Z,44.90
2019-02-24T12:51:18.419Z,44.90
2019-02-24T12:53:46.068Z,44.70
2019-02-24T12:56:14.908Z,44.70
2019-02-24T12:58:42.706Z,44.60
2019-02-24T13:01:10.467Z,44.40
2019-02-24T13:03:37.994Z,44.40
2019-02-24T13:06:05.577Z,44.30
2019-02-24T13:08:33.163Z,44.10
2019-02-24T13:11:00.705Z,44.20
2019-02-24T13:13:28.321Z,44.50
2019-02-24T13:15:55.923Z,44.40
2019-02-24T13:18:23.522Z,44.60
2019-02-24T13:20:51.043Z,44.80
2019-02-24T13:23:18.577Z,45.00
2019-02-24T13:25:46.114Z,45.10
2019-02-24T13:28:13.673Z,44.80
2019-02-24T13:30:41.205Z,44.60
2019-02-24T13:33:09.341Z,44.40
2019-02-24T13:35:36.857Z,44.40
2019-02-24T13:38:04.461Z,44.30
2019-02-24T13:40:31.983Z,44.00
2019-02-24T13:42:59.869Z,43.80
2019-02-24T13:45:27.421Z,43.80
2019-02-24T13:47:54.949Z,44.00
2019-02-24T13:50:22.485Z,44.10
2019-02-24T13:52:50.006Z,43.90
2019-02-24T13:55:17.563Z,44.00
2019-02-24T13:57:45.155Z,43.60
2019-02-24T14:00:14.311Z,43.70
2019-02-24T14:02:42.193Z,43.60
2019-02-24T14:05:09.729Z,43.70
2019-02-24T14:07:37.632Z,43.60
2019-02-24T14:10:06.545Z,43.50
2019-02-24T14:12:34.066Z,43.50
2019-02-24T14:15:01.704Z,43.70
2019-02-24T14:17:29.235Z,44.30
2019-02-24T14:19:56.844Z,44.10
2019-02-24T14:22:24.364Z,44.20
2019-02-24T14:24:51.941Z,44.50
2019-02-24T14:27:19.467Z,45.80
2019-02-24T14:29:47.004Z,46.80
2019-02-24T14:32:14.530Z,46.30
2019-02-24T14:34:42.064Z,46.30
2019-02-24T14:37:09.642Z,46.60
2019-02-24T14:39:38.393Z,47.30
2019-02-24T14:42:05.988Z,47.00
2019-02-24T14:44:33.509Z,47.20
2019-02-24T14:47:01.048Z,47.10
2019-02-24T14:49:28.698Z,46.70
2019-02-24T14:51:56.340Z,46.40
2019-02-24T14:54:25.648Z,46.30
2019-02-24T14:56:53.297Z,46.10
2019-02-24T14:59:20.822Z,46.20
2019-02-24T15:01:48.347Z,45.80
2019-02-24T15:04:15.895Z,45.80
2019-02-24T15:06:43.526Z,46.40
2019-02-24T15:09:11.035Z,45.80
2019-02-24T15:11:38.586Z,45.70
2019-02-24T15:14:06.462Z,45.70
2019-02-24T15:16:33.987Z,45.50
2019-02-24T15:19:01.884Z,45.50
2019-02-24T15:21:29.487Z,45.50
2019-02-24T15:23:58.293Z,45.40
2019-02-24T15:26:25.866Z,45.30
2019-02-24T15:28:53.382Z,45.40
2019-02-24T15:31:20.914Z,45.30
2019-02-24T15:33:48.442Z,45.20
2019-02-24T15:36:18.658Z,45.10
2019-02-24T15:38:46.183Z,45.10
2019-02-24T15:41:13.803Z,45.10
2019-02-24T15:43:41.436Z,45.00
2019-02-24T15:46:08.978Z,45.00
2019-02-24T15:48:36.502Z,45.60
2019-02-24T15:51:04.033Z,45.10
2019-02-24T15:53:31.567Z,45.10
2019-02-24T15:55:59.482Z,45.20
2019-02-24T15:58:27.009Z,45.40
2019-02-24T16:00:54.814Z,45.50
2019-02-24T16:03:22.682Z,45.70
2019-02-24T16:05:50.281Z,45.50
2019-02-24T16:08:17.798Z,45.50
2019-02-24T16:10:45.343Z,45.20
2019-02-24T16:13:16.906Z,45.10
2019-02-24T16:15:42.111Z,45.00
2019-02-24T16:18:09.909Z,44.90
2019-02-24T16:20:38.830Z,45.10
2019-02-24T16:23:06.645Z,45.10
2019-02-24T16:25:34.245Z,45.70
2019-02-24T16:28:01.766Z,45.00
2019-02-24T16:30:29.291Z,44.90
2019-02-24T16:32:56.834Z,45.00
2019-02-24T16:35:24.419Z,45.20
2019-02-24T16:37:51.961Z,45.10
2019-02-24T16:40:23.186Z,44.90
2019-02-24T16:42:50.739Z,45.70
2019-02-24T16:45:18.279Z,45.00
2019-02-24T16:47:45.921Z,45.10
2019-02-24T16:50:14.587Z,45.10
2019-02-24T16:52:42.120Z,45.80
2019-02-24T16:55:11.349Z,45.10
2019-02-24T16:57:38.914Z,45.00
2019-02-24T17:00:14.152Z,45.10
2019-02-24T17:02:41.747Z,45.10
2019-02-24T17:05:09.289Z,45.10
2019-02-24T17:07:36.807Z,45.20
2019-02-24T17:10:14.492Z,45.20
2019-02-24T17:12:42.020Z,45.40
2019-02-24T17:15:10.527Z,45.30
2019-02-24T17:17:38.052Z,45.50
2019-02-24T17:20:10.278Z,45.60
2019-02-24T17:22:38.087Z,45.70
2019-02-24T17:25:06.817Z,46.00
2019-02-24T17:27:34.338Z,45.70
2019-02-24T17:30:01.870Z,45.70
2019-02-24T17:32:29.405Z,45.70
2019-02-24T17:34:56.934Z,45.70
2019-02-24T17:37:24.475Z,45.70
2019-02-24T17:41:59.911Z,45.70
2019-02-24T17:44:27.465Z,45.70
2019-02-24T17:46:54.977Z,45.50
2019-02-24T17:49:22.507Z,45.80
2019-02-24T17:51:50.029Z,45.80
2019-02-24T17:54:17.550Z,45.80
2019-02-24T17:56:45.081Z,46.00
2019-02-24T17:59:12.964Z,45.70
2019-02-24T18:01:40.487Z,45.70
2019-02-24T18:04:08.021Z,45.70
2019-02-24T18:06:35.713Z,45.80
2019-02-24T18:09:03.307Z,46.10
2019-02-24T18:11:31.849Z,46.20
2019-02-24T18:13:59.374Z,46.30
2019-02-24T18:16:26.900Z,46.50
2019-02-24T18:18:54.438Z,46.40
2019-02-24T18:21:21.958Z,46.40
2019-02-24T18:23:50.529Z,46.50
2019-02-24T18:26:18.054Z,46.40
2019-02-24T18:28:45.644Z,46.30
2019-02-24T18:31:13.180Z,46.20
2019-02-24T18:33:48.039Z,46.30
2019-02-24T18:36:10.065Z,46.30
2019-02-24T18:38:37.661Z,46.30
2019-02-24T18:41:05.194Z,46.30
2019-02-24T18:43:32.855Z,46.40
2019-02-24T18:46:00.387Z,46.50
2019-02-24T18:48:28.135Z,46.80
2019-02-24T18:50:55.731Z,46.70
2019-02-24T18:53:23.330Z,46.60
2019-02-24T18:55:50.863Z,47.30
2019-02-24T18:58:18.519Z,46.90
2019-02-24T19:00:46.039Z,46.70
2019-02-24T19:03:13.575Z,46.70
2019-02-24T19:05:41.169Z,46.60
2019-02-24T19:08:08.690Z,47.00
2019-02-24T19:10:36.220Z,47.10
2019-02-24T19:13:03.835Z,47.00
2019-02-24T19:15:31.439Z,46.70
2019-02-24T19:17:59.092Z,47.20
2019-02-24T19:20:26.698Z,47.30
2019-02-24T19:22:54.227Z,47.40
2019-02-24T19:25:21.824Z,47.40
2019-02-24T19:27:49.387Z,47.40
2019-02-24T19:30:17.381Z,47.40
2019-02-24T19:32:45.328Z,47.30
2019-02-24T19:35:13.779Z,47.30
2019-02-24T19:37:41.925Z,47.10
2019-02-24T19:40:10.625Z,47.00
2019-02-24T19:42:38.147Z,47.00
2019-02-24T19:45:07.344Z,46.90
2019-02-24T19:47:34.979Z,46.80
2019-02-24T19:50:02.505Z,46.60
2019-02-24T19:52:30.041Z,46.70
2019-02-24T19:54:57.558Z,46.60
2019-02-24T19:57:25.133Z,46.80
2019-02-24T19:59:52.753Z,46.90
2019-02-24T20:02:20.276Z,46.90
2019-02-24T20:04:47.871Z,46.80
2019-02-24T20:07:15.399Z,46.90
2019-02-24T20:09:42.929Z,46.80
2019-02-24T20:12:10.473Z,46.80
2019-02-24T20:14:37.982Z,47.00
2019-02-24T20:17:05.786Z,46.80
2019-02-24T20:19:33.375Z,46.80
2019-02-24T20:22:01.175Z,46.80
2019-02-24T20:24:32.968Z,46.80
2019-02-24T20:26:57.999Z,46.70
2019-02-24T20:29:25.524Z,47.00
2019-02-24T20:31:53.053Z,47.10
2019-02-24T20:34:25.506Z,47.20
2019-02-24T20:36:49.941Z,46.90
2019-02-24T20:39:17.481Z,46.80
2019-02-24T20:41:44.998Z,46.80
2019-02-24T20:44:12.532Z,46.80
2019-02-24T20:46:40.067Z,46.80
2019-02-24T20:49:07.599Z,46.60
2019-02-24T20:51:35.120Z,46.50
2019-02-24T20:54:02.668Z,46.50
2019-02-24T20:56:30.258Z,46.40
2019-02-24T20:58:57.797Z,46.30
2019-02-24T21:01:25.742Z,46.60
2019-02-24T21:03:53.285Z,46.60
2019-02-24T21:06:20.805Z,46.80
2019-02-24T21:08:48.326Z,46.40
2019-02-24T21:11:15.884Z,46.40
2019-02-24T21:13:43.733Z,46.30
2019-02-24T21:16:11.250Z,46.30
2019-02-24T21:18:38.869Z,46.30
2019-02-24T21:21:06.399Z,46.60
2019-02-24T21:23:33.929Z,46.40
2019-02-24T21:26:01.458Z,46.40
2019-02-24T21:28:28.980Z,46.30
2019-02-24T21:30:56.508Z,46.20
2019-02-24T21:33:26.721Z,46.40
2019-02-24T21:37:53.451Z,46.90
2019-02-24T21:40:20.978Z,47.00
2019-02-24T21:42:48.500Z,46.90
2019-02-24T21:45:17.113Z,46.90
2019-02-24T21:47:44.658Z,47.20
2019-02-24T21:50:13.455Z,46.70
2019-02-24T21:52:40.997Z,46.60
2019-02-24T21:55:09.090Z,46.50
2019-02-24T21:57:36.629Z,46.50
2019-02-24T22:00:05.787Z,46.50
2019-02-24T22:02:33.362Z,46.30
2019-02-24T22:05:00.889Z,46.10
2019-02-24T22:07:28.414Z,45.90
2019-02-24T22:09:56.033Z,45.80
2019-02-24T22:12:23.574Z,46.00
2019-02-24T22:14:51.094Z,46.00
2019-02-24T22:17:18.628Z,46.10
2019-02-24T22:19:46.154Z,45.90
2019-02-24T22:22:13.674Z,45.60
2019-02-24T22:24:41.287Z,45.60
2019-02-24T22:27:08.810Z,45.70
2019-02-24T22:29:36.337Z,45.70
2019-02-24T22:32:03.861Z,45.60
2019-02-24T22:34:31.724Z,45.60
2019-02-24T22:36:59.252Z,45.70
2019-02-24T22:39:26.777Z,45.70
2019-02-24T22:41:54.553Z,45.60
2019-02-24T22:44:22.091Z,45.60
2019-02-24T22:46:49.674Z,45.70
2019-02-24T22:49:17.201Z,45.60
2019-02-24T22:51:44.726Z,45.70
2019-02-24T22:54:12.246Z,45.60
2019-02-24T22:56:39.771Z,45.60
2019-02-24T22:59:07.305Z,45.60
2019-02-24T23:01:35.202Z,45.70
2019-02-24T23:04:06.641Z,45.70
2019-02-24T23:06:34.170Z,45.70
2019-02-24T23:09:01.688Z,45.70
2019-02-24T23:11:29.236Z,45.70
2019-02-24T23:13:56.759Z,45.60
2019-02-24T23:16:24.296Z,45.60
2019-02-24T23:18:51.833Z,45.60
2019-02-24T23:21:19.351Z,45.70
2019-02-24T23:23:46.879Z,45.60
2019-02-24T23:26:14.404Z,45.40
2019-02-24T23:28:41.936Z,45.40
2019-02-24T23:31:09.464Z,45.30
2019-02-24T23:33:37.118Z,45.30
2019-02-24T23:36:04.647Z,45.30
2019-02-24T23:38:32.186Z,45.30
2019-02-24T23:40:59.704Z,45.30
2019-02-24T23:43:27.245Z,45.30
2019-02-24T23:45:54.779Z,45.60
2019-02-24T23:48:22.315Z,45.80
2019-02-24T23:50:49.828Z,45.60
2019-02-24T23:53:17.395Z,45.60
2019-02-24T23:55:44.923Z,45.70
2019-02-24T23:58:12.449Z,45.70
